createdAt,value
2018-11-26T00:01:50.230Z,54.00
2018-11-26T00:04:17.908Z,49.13
2018-11-26T00:06:45.592Z,49.93
2018-11-26T00:09:13.241Z,51.80
2018-11-26T00:11:40.936Z,50.87
2018-11-26T00:14:08.575Z,50.93
2018-11-26T00:16:36.259Z,53.28
2018-11-26T00:19:04.400Z,51.23
2018-11-26T00:21:32.051Z,57.13
2018-11-26T00:23:59.755Z,59.33
2018-11-26T00:26:27.405Z,52.73
2018-11-26T00:28:55.052Z,56.97
2018-11-26T00:31:22.736Z,62.40
2018-11-26T00:33:50.452Z,60.90
2018-11-26T00:36:18.132Z,51.80
2018-11-26T00:38:45.860Z,50.37
2018-11-26T00:41:13.627Z,50.30
2018-11-26T00:43:41.562Z,55.03
2018-11-26T00:46:09.303Z,57.70
2018-11-26T00:48:37.007Z,56.23
2018-11-26T00:51:05.749Z,53.80
2018-11-26T00:53:33.406Z,58.03
2018-11-26T00:56:01.137Z,54.08
2018-11-26T00:58:28.821Z,55.43
2018-11-26T01:00:56.576Z,62.53
2018-11-26T01:03:25.015Z,67.83
2018-11-26T01:05:52.776Z,67.72
2018-11-26T01:08:20.543Z,69.53
2018-11-26T01:10:48.300Z,68.07
2018-11-26T01:13:16.016Z,71.90
2018-11-26T01:15:43.788Z,68.57
2018-11-26T01:18:11.472Z,71.30
2018-11-26T01:20:39.153Z,71.15
2018-11-26T01:23:06.835Z,67.55
2018-11-26T01:25:34.599Z,64.90
2018-11-26T01:28:02.299Z,68.33
2018-11-26T01:30:30.042Z,86.73
2018-11-26T01:32:57.690Z,83.00
2018-11-26T01:35:25.422Z,86.07
2018-11-26T01:37:53.720Z,100.57
2018-11-26T01:40:27.105Z,94.93
2018-11-26T01:42:55.086Z,99.10
2018-11-26T01:45:22.772Z,99.73
2018-11-26T01:47:50.450Z,108.45
2018-11-26T01:50:18.123Z,106.83
2018-11-26T01:52:45.774Z,107.07
2018-11-26T01:55:13.587Z,102.03
2018-11-26T01:57:41.351Z,101.97
2018-11-26T02:00:40.042Z,107.72
2018-11-26T02:03:07.725Z,99.73
2018-11-26T02:05:35.770Z,103.97
2018-11-26T02:08:03.482Z,105.73
2018-11-26T02:10:31.131Z,107.58
2018-11-26T02:12:58.868Z,106.80
2018-11-26T02:15:36.752Z,111.60
2018-11-26T02:18:04.552Z,109.93
2018-11-26T02:20:32.233Z,107.80
2018-11-26T02:22:59.886Z,119.55
2018-11-26T02:25:27.623Z,123.97
2018-11-26T02:27:55.378Z,109.27
2018-11-26T02:30:23.104Z,120.10
2018-11-26T02:32:50.842Z,115.90
2018-11-26T02:35:19.328Z,124.12
2018-11-26T02:37:50.234Z,122.43
2018-11-26T02:40:24.403Z,119.87
2018-11-26T02:42:52.165Z,123.63
2018-11-26T02:45:19.880Z,132.57
2018-11-26T02:47:48.229Z,121.75
2018-11-26T02:50:16.116Z,128.37
2018-11-26T02:52:43.765Z,125.47
2018-11-26T02:55:11.477Z,128.85
2018-11-26T02:57:39.184Z,134.75
2018-11-26T03:00:09.404Z,133.80
2018-11-26T03:02:37.148Z,132.60
2018-11-26T03:05:06.877Z,136.00
2018-11-26T03:07:34.830Z,124.13
2018-11-26T03:10:02.715Z,132.77
2018-11-26T03:12:30.618Z,126.63
2018-11-26T03:14:58.347Z,130.87
2018-11-26T03:17:26.035Z,138.75
2018-11-26T03:19:53.670Z,139.47
2018-11-26T03:22:21.437Z,129.63
2018-11-26T03:24:49.124Z,132.30
2018-11-26T03:27:16.851Z,133.00
2018-11-26T03:29:44.584Z,131.57
2018-11-26T03:32:12.302Z,128.13
2018-11-26T03:34:39.980Z,126.70
2018-11-26T03:37:07.699Z,123.47
2018-11-26T03:39:35.536Z,121.13
2018-11-26T03:42:03.317Z,127.12
2018-11-26T03:44:31.120Z,116.87
2018-11-26T03:46:59.281Z,115.63
2018-11-26T03:49:27.106Z,115.30
2018-11-26T03:51:55.553Z,130.17
2018-11-26T03:54:23.368Z,118.50
2018-11-26T03:56:51.140Z,102.85
2018-11-26T03:59:19.041Z,110.22
2018-11-26T04:01:46.769Z,111.12
2018-11-26T04:04:14.442Z,111.20
2018-11-26T04:06:42.186Z,104.30
2018-11-26T04:09:09.808Z,105.70
2018-11-26T04:11:37.507Z,92.92
2018-11-26T04:14:05.223Z,98.95
2018-11-26T04:16:33.792Z,87.30
2018-11-26T04:19:01.866Z,105.90
2018-11-26T04:21:29.659Z,107.17
2018-11-26T04:23:57.554Z,105.93
2018-11-26T04:26:25.331Z,99.17
2018-11-26T04:28:53.036Z,96.27
2018-11-26T04:31:20.736Z,101.65
2018-11-26T04:33:48.770Z,105.37
2018-11-26T04:36:16.467Z,101.70
2018-11-26T04:38:44.181Z,109.00
2018-11-26T04:41:11.956Z,103.17
2018-11-26T04:43:39.625Z,94.83
2018-11-26T04:46:16.413Z,98.30
2018-11-26T04:48:44.196Z,97.47
2018-11-26T04:51:11.936Z,115.83
2018-11-26T04:53:39.652Z,114.35
2018-11-26T04:56:07.306Z,120.62
2018-11-26T04:58:35.039Z,117.63
2018-11-26T05:01:02.802Z,123.17
2018-11-26T05:03:30.502Z,115.90
2018-11-26T05:08:33.344Z,128.70
2018-11-26T05:11:01.002Z,118.70
2018-11-26T05:13:28.768Z,116.62
2018-11-26T05:15:57.361Z,114.22
2018-11-26T05:18:25.049Z,109.17
2018-11-26T05:20:52.739Z,119.50
2018-11-26T05:23:20.464Z,131.40
2018-11-26T05:25:48.235Z,112.10
2018-11-26T05:28:16.010Z,122.07
2018-11-26T05:30:44.357Z,123.33
2018-11-26T05:33:12.038Z,119.13
2018-11-26T05:35:39.657Z,121.83
2018-11-26T05:38:07.314Z,123.37
2018-11-26T05:40:35.192Z,129.23
2018-11-26T05:43:02.869Z,140.50
2018-11-26T05:45:30.541Z,131.43
2018-11-26T05:47:58.227Z,123.20
2018-11-26T05:50:25.942Z,119.67
2018-11-26T05:52:53.677Z,129.93
2018-11-26T05:55:21.923Z,130.77
2018-11-26T05:57:49.946Z,115.93
2018-11-26T06:00:36.503Z,111.57
2018-11-26T06:03:04.788Z,119.90
2018-11-26T06:05:32.517Z,146.37
2018-11-26T06:08:00.247Z,129.57
2018-11-26T06:10:28.903Z,127.47
2018-11-26T06:12:56.932Z,125.50
2018-11-26T06:15:25.449Z,137.10
2018-11-26T06:17:54.653Z,131.50
2018-11-26T06:20:22.893Z,137.40
2018-11-26T06:22:51.143Z,129.70
2018-11-26T06:25:21.969Z,139.77
2018-11-26T06:27:50.618Z,145.90
2018-11-26T06:30:19.247Z,155.03
2018-11-26T06:32:47.005Z,156.67
2018-11-26T06:35:18.308Z,125.50
2018-11-26T06:37:46.024Z,143.87
2018-11-26T06:40:14.032Z,144.32
2018-11-26T06:42:41.724Z,143.47
2018-11-26T06:45:15.247Z,131.97
2018-11-26T06:47:42.997Z,137.83
2018-11-26T06:50:12.701Z,145.83
2018-11-26T06:52:40.371Z,144.60
2018-11-26T06:55:11.585Z,131.87
2018-11-26T06:57:39.313Z,137.73
2018-11-26T07:00:10.004Z,146.20
2018-11-26T07:02:37.698Z,133.60
2018-11-26T07:05:15.869Z,136.57
2018-11-26T07:07:43.665Z,151.30
2018-11-26T07:10:12.512Z,146.80
2018-11-26T07:12:40.381Z,142.10
2018-11-26T07:15:13.770Z,138.33
2018-11-26T07:17:41.582Z,136.63
2018-11-26T07:20:12.229Z,136.73
2018-11-26T07:22:39.930Z,151.50
2018-11-26T07:25:09.809Z,149.77
2018-11-26T07:27:37.612Z,149.03
2018-11-26T07:30:13.129Z,162.73
2018-11-26T07:32:41.510Z,144.10
2018-11-26T07:35:09.920Z,138.83
2018-11-26T07:37:37.705Z,148.67
2018-11-26T07:40:14.608Z,154.83
2018-11-26T07:42:46.420Z,156.30
2018-11-26T07:45:14.219Z,146.90
2018-11-26T07:47:41.832Z,135.97
2018-11-26T07:50:13.355Z,146.22
2018-11-26T07:52:41.133Z,160.27
2018-11-26T07:55:12.015Z,174.00
2018-11-26T07:57:39.706Z,139.77
2018-11-26T08:00:10.313Z,155.87
2018-11-26T08:02:38.031Z,144.17
2018-11-26T08:05:07.450Z,138.30
2018-11-26T08:07:35.107Z,128.33
2018-11-26T08:10:03.728Z,147.80
2018-11-26T08:12:31.536Z,149.90
2018-11-26T08:14:59.245Z,121.37
2018-11-26T08:17:27.001Z,133.03
2018-11-26T08:19:54.649Z,141.82
2018-11-26T08:22:22.698Z,148.10
2018-11-26T08:24:50.528Z,141.07
2018-11-26T08:27:18.181Z,155.13
2018-11-26T08:29:46.000Z,144.60
2018-11-26T08:32:13.721Z,152.27
2018-11-26T08:34:41.489Z,158.00
2018-11-26T08:37:15.157Z,166.95
2018-11-26T08:39:48.677Z,167.53
2018-11-26T08:42:21.985Z,154.97
2018-11-26T08:44:55.311Z,153.27
2018-11-26T08:47:29.188Z,134.53
2018-11-26T08:49:56.992Z,149.40
2018-11-26T08:52:24.760Z,154.47
2018-11-26T08:54:52.503Z,142.75
2018-11-26T08:57:20.276Z,156.30
2018-11-26T08:59:47.977Z,136.73
2018-11-26T09:02:20.877Z,143.77
2018-11-26T09:04:53.216Z,134.67
2018-11-26T09:07:20.889Z,124.90
2018-11-26T09:09:48.596Z,130.15
2018-11-26T09:12:16.387Z,127.47
2018-11-26T09:14:44.137Z,114.03
2018-11-26T09:17:11.902Z,101.17
2018-11-26T09:19:39.825Z,102.63
2018-11-26T09:22:08.656Z,107.80
2018-11-26T09:24:36.365Z,117.13
2018-11-26T09:27:09.702Z,94.75
2018-11-26T09:29:31.772Z,99.67
2018-11-26T09:31:59.503Z,100.07
2018-11-26T09:34:27.816Z,98.10
2018-11-26T09:36:55.539Z,96.65
2018-11-26T09:39:23.245Z,89.80
2018-11-26T09:41:50.941Z,99.63
2018-11-26T09:44:18.630Z,104.87
2018-11-26T09:46:46.401Z,100.62
2018-11-26T09:49:14.100Z,113.50
2018-11-26T09:51:42.294Z,106.12
2018-11-26T09:54:09.796Z,107.77
2018-11-26T09:56:37.596Z,99.80
2018-11-26T09:59:05.545Z,102.53
2018-11-26T10:01:35.878Z,89.33
2018-11-26T10:04:05.378Z,93.87
2018-11-26T10:06:33.059Z,102.23
2018-11-26T10:09:00.784Z,90.25
2018-11-26T10:11:28.520Z,84.47
2018-11-26T10:13:56.987Z,78.40
2018-11-26T10:16:26.117Z,69.70
2018-11-26T10:18:53.775Z,73.97
2018-11-26T10:21:21.512Z,79.95
2018-11-26T10:23:49.231Z,75.12
2018-11-26T10:26:17.893Z,79.97
2018-11-26T10:28:45.634Z,82.10
2018-11-26T10:31:13.340Z,80.83
2018-11-26T10:33:41.638Z,89.32
2018-11-26T10:36:10.008Z,79.90
2018-11-26T10:38:37.835Z,85.73
2018-11-26T10:41:05.564Z,79.83
2018-11-26T10:43:33.824Z,81.90
2018-11-26T10:46:02.750Z,67.70
2018-11-26T10:48:30.411Z,71.30
2018-11-26T10:50:58.784Z,87.12
2018-11-26T10:53:26.439Z,87.37
2018-11-26T10:55:54.195Z,80.80
2018-11-26T10:58:22.445Z,75.08
2018-11-26T11:01:01.265Z,85.93
2018-11-26T11:03:30.249Z,63.87
2018-11-26T11:06:00.330Z,66.23
2018-11-26T11:08:28.693Z,64.93
2018-11-26T11:10:57.861Z,62.30
2018-11-26T11:13:25.638Z,61.60
2018-11-26T11:15:53.298Z,65.83
2018-11-26T11:18:21.898Z,54.48
2018-11-26T11:20:49.659Z,71.90
2018-11-26T11:23:17.423Z,54.67
2018-11-26T11:25:46.105Z,58.68
2018-11-26T11:28:14.528Z,55.67
2018-11-26T11:30:45.124Z,53.63
2018-11-26T11:35:40.113Z,58.33
2018-11-26T11:38:11.596Z,51.57
2018-11-26T11:40:39.350Z,59.97
2018-11-26T11:43:11.260Z,56.80
2018-11-26T11:45:41.005Z,44.73
2018-11-26T11:48:08.757Z,57.03
2018-11-26T11:50:36.530Z,49.80
2018-11-26T11:53:04.703Z,48.00
2018-11-26T11:55:33.890Z,45.73
2018-11-26T11:58:01.612Z,48.60
2018-11-26T12:00:39.105Z,46.63
2018-11-26T12:03:09.993Z,47.10
2018-11-26T12:05:37.722Z,48.90
2018-11-26T12:08:07.026Z,62.53
2018-11-26T12:10:34.816Z,44.97
2018-11-26T12:13:02.582Z,46.93
2018-11-26T12:15:30.373Z,52.08
2018-11-26T12:17:58.062Z,48.70
2018-11-26T12:20:27.812Z,53.70
2018-11-26T12:23:00.673Z,52.73
2018-11-26T12:25:29.653Z,53.03
2018-11-26T12:27:57.493Z,52.90
2018-11-26T12:30:27.295Z,57.37
2018-11-26T12:32:55.516Z,56.07
2018-11-26T12:35:24.004Z,57.40
2018-11-26T12:37:51.696Z,62.07
2018-11-26T12:40:22.998Z,56.75
2018-11-26T12:42:53.427Z,63.80
2018-11-26T12:45:27.741Z,57.50
2018-11-26T12:47:58.355Z,58.23
2018-11-26T12:50:26.301Z,68.50
2018-11-26T12:52:54.025Z,74.60
2018-11-26T12:55:23.741Z,63.10
2018-11-26T12:57:54.370Z,60.60
2018-11-26T13:00:24.657Z,65.67
2018-11-26T13:03:00.316Z,68.67
2018-11-26T13:05:28.345Z,68.03
2018-11-26T13:07:56.651Z,73.60
2018-11-26T13:10:24.353Z,69.30
2018-11-26T13:12:52.700Z,71.85
2018-11-26T13:15:22.590Z,70.27
2018-11-26T13:17:51.122Z,74.43
2018-11-26T13:20:22.498Z,66.53
2018-11-26T13:22:50.998Z,67.80
2018-11-26T13:25:20.529Z,70.90
2018-11-26T13:27:53.411Z,71.90
2018-11-26T13:30:26.789Z,74.00
2018-11-26T13:32:56.392Z,78.50
2018-11-26T13:35:25.357Z,79.80
2018-11-26T13:37:53.639Z,79.27
2018-11-26T13:40:22.292Z,63.53
2018-11-26T13:42:50.741Z,77.33
2018-11-26T13:45:25.309Z,87.23
2018-11-26T13:47:53.788Z,88.43
2018-11-26T13:50:26.832Z,75.97
2018-11-26T13:52:55.070Z,87.93
2018-11-26T13:55:22.792Z,89.40
2018-11-26T13:57:52.133Z,84.47
2018-11-26T14:00:19.945Z,88.27
2018-11-26T14:02:48.881Z,82.13
2018-11-26T14:05:19.232Z,88.73
2018-11-26T14:07:48.157Z,93.17
2018-11-26T14:10:24.415Z,106.13
2018-11-26T14:13:12.854Z,97.80
2018-11-26T14:15:40.572Z,89.57
2018-11-26T14:18:08.558Z,86.87
2018-11-26T14:20:36.351Z,79.00
2018-11-26T14:23:04.485Z,79.20
2018-11-26T14:25:32.261Z,72.10
2018-11-26T14:28:00.017Z,73.20
2018-11-26T14:30:28.564Z,70.90
2018-11-26T14:32:58.574Z,62.10
2018-11-26T14:35:26.326Z,64.20
2018-11-26T14:37:58.074Z,59.40
2018-11-26T14:40:45.325Z,52.47
2018-11-26T14:43:13.036Z,66.53
2018-11-26T14:45:40.772Z,54.58
2018-11-26T14:48:08.597Z,48.13
2018-11-26T14:50:36.400Z,51.53
2018-11-26T14:53:05.519Z,48.23
2018-11-26T14:55:35.568Z,37.63
2018-11-26T14:58:03.376Z,42.03
2018-11-26T15:00:30.673Z,38.03
2018-11-26T15:02:58.477Z,43.13
2018-11-26T15:05:26.186Z,43.17
2018-11-26T15:07:54.067Z,38.67
2018-11-26T15:10:23.124Z,43.00
2018-11-26T15:12:51.130Z,45.57
2018-11-26T15:15:22.162Z,44.63
2018-11-26T15:17:50.235Z,40.20
2018-11-26T15:20:24.839Z,47.63
2018-11-26T15:22:54.125Z,47.63
2018-11-26T15:25:25.174Z,45.33
2018-11-26T15:27:56.904Z,61.40
2018-11-26T15:30:24.601Z,62.43
2018-11-26T15:32:52.307Z,69.40
2018-11-26T15:35:22.203Z,65.75
2018-11-26T15:37:50.574Z,62.20
2018-11-26T15:40:19.722Z,63.30
2018-11-26T15:42:48.407Z,67.80
2018-11-26T15:45:19.971Z,64.50
2018-11-26T15:47:49.374Z,62.20
2018-11-26T15:50:17.135Z,63.97
2018-11-26T15:52:44.973Z,65.23
2018-11-26T15:55:15.042Z,58.80
2018-11-26T15:57:45.935Z,61.77
2018-11-26T16:00:19.009Z,57.07
2018-11-26T16:02:47.777Z,49.73
2018-11-26T16:05:21.369Z,56.20
2018-11-26T16:07:52.293Z,50.03
2018-11-26T16:10:21.006Z,58.00
2018-11-26T16:12:52.051Z,46.07
2018-11-26T16:15:23.135Z,49.30
2018-11-26T16:17:51.712Z,55.33
2018-11-26T16:20:22.257Z,51.10
2018-11-26T16:22:50.057Z,49.07
2018-11-26T16:25:22.734Z,56.20
2018-11-26T16:27:51.952Z,50.97
2018-11-26T16:30:19.939Z,53.57
2018-11-26T16:32:50.681Z,45.33
2018-11-26T16:35:20.603Z,53.10
2018-11-26T16:37:48.285Z,54.60
2018-11-26T16:40:16.981Z,49.42
2018-11-26T16:42:44.730Z,51.57
2018-11-26T16:45:18.230Z,47.85
2018-11-26T16:47:48.872Z,54.90
2018-11-26T16:50:18.100Z,46.60
2018-11-26T16:52:45.916Z,48.47
2018-11-26T16:55:15.584Z,51.20
2018-11-26T16:57:44.560Z,54.00
2018-11-26T17:00:15.128Z,54.20
2018-11-26T17:02:46.549Z,52.10
2018-11-26T17:05:17.369Z,52.67
2018-11-26T17:07:46.589Z,46.40
2018-11-26T17:10:14.349Z,45.80
2018-11-26T17:12:42.280Z,49.40
2018-11-26T17:15:14.913Z,45.83
2018-11-26T17:17:50.461Z,48.47
2018-11-26T17:20:18.287Z,53.77
2018-11-26T17:22:47.055Z,50.23
2018-11-26T17:25:15.582Z,55.80
2018-11-26T17:27:44.498Z,50.30
2018-11-26T17:30:23.342Z,58.67
2018-11-26T17:32:58.231Z,51.57
2018-11-26T17:35:26.242Z,58.10
2018-11-26T17:37:54.094Z,52.40
2018-11-26T17:40:24.896Z,59.00
2018-11-26T17:42:53.933Z,56.87
2018-11-26T17:45:22.405Z,54.43
2018-11-26T17:47:55.220Z,58.93
2018-11-26T17:50:41.867Z,55.33
2018-11-26T17:53:15.766Z,63.53
2018-11-26T17:55:49.575Z,50.60
2018-11-26T17:58:19.481Z,57.93
2018-11-26T18:01:56.048Z,61.17
2018-11-26T18:04:23.826Z,60.07
2018-11-26T18:06:52.046Z,53.90
2018-11-26T18:09:22.783Z,53.37
2018-11-26T18:11:48.407Z,59.70
2018-11-26T18:14:16.053Z,47.60
2018-11-26T18:16:44.313Z,57.00
2018-11-26T18:19:11.974Z,46.73
2018-11-26T18:21:39.783Z,52.60
2018-11-26T18:24:08.334Z,56.90
2018-11-26T18:26:36.470Z,49.53
2018-11-26T18:29:05.025Z,53.87
2018-11-26T18:31:34.245Z,53.40
2018-11-26T18:34:01.978Z,60.40
2018-11-26T18:36:29.742Z,50.03
2018-11-26T18:38:59.392Z,49.15
2018-11-26T18:41:27.078Z,53.90
2018-11-26T18:43:55.830Z,52.93
2018-11-26T18:46:24.353Z,54.80
2018-11-26T18:48:53.038Z,55.07
2018-11-26T18:51:20.977Z,47.63
2018-11-26T18:53:49.764Z,53.37
2018-11-26T18:56:18.241Z,49.00
2018-11-26T18:58:48.390Z,43.97
2018-11-26T19:01:16.410Z,48.33
2018-11-26T19:03:44.447Z,46.80
2018-11-26T19:06:12.821Z,47.00
2018-11-26T19:08:41.890Z,41.43
2018-11-26T19:11:15.311Z,46.13
2018-11-26T19:14:07.323Z,45.83
2018-11-26T19:16:38.937Z,41.73
2018-11-26T19:19:07.203Z,44.43
2018-11-26T19:21:35.326Z,47.77
2018-11-26T19:24:03.057Z,43.13
2018-11-26T19:26:32.552Z,40.03
2018-11-26T19:29:00.868Z,41.63
2018-11-26T19:31:30.541Z,44.50
2018-11-26T19:33:58.260Z,44.83
2018-11-26T19:36:26.417Z,42.27
2018-11-26T19:38:54.275Z,45.07
2018-11-26T19:41:22.405Z,48.20
2018-11-26T19:43:50.264Z,39.37
2018-11-26T19:46:18.047Z,40.70
2018-11-26T19:48:45.755Z,40.85
2018-11-26T19:51:13.447Z,42.15
2018-11-26T19:53:41.860Z,47.73
2018-11-26T19:56:09.611Z,44.60
2018-11-26T19:58:38.393Z,43.40
2018-11-26T20:01:06.678Z,49.23
2018-11-26T20:03:39.053Z,54.47
2018-11-26T20:06:13.113Z,54.63
2018-11-26T20:08:42.160Z,57.27
2018-11-26T20:11:11.340Z,47.27
2018-11-26T20:13:39.402Z,53.13
2018-11-26T20:16:14.665Z,52.93
2018-11-26T20:18:43.962Z,46.80
2018-11-26T20:21:12.084Z,48.60
2018-11-26T20:23:39.895Z,47.20
2018-11-26T20:26:08.097Z,49.30
2018-11-26T20:28:35.902Z,50.37
2018-11-26T20:31:04.833Z,49.80
2018-11-26T20:33:32.760Z,49.87
2018-11-26T20:36:00.474Z,49.67
2018-11-26T20:38:28.306Z,50.60
2018-11-26T20:40:56.094Z,49.45
2018-11-26T20:43:23.906Z,52.67
2018-11-26T20:45:51.654Z,52.85
2018-11-26T20:48:19.637Z,50.13
2018-11-26T20:50:49.696Z,53.37
2018-11-26T20:53:19.165Z,54.20
2018-11-26T20:55:46.937Z,59.60
2018-11-26T20:58:14.689Z,53.50
2018-11-26T21:00:42.817Z,57.58
2018-11-26T21:03:10.988Z,52.37
2018-11-26T21:05:39.968Z,53.20
2018-11-26T21:08:07.755Z,56.50
2018-11-26T21:10:35.792Z,52.83
2018-11-26T21:13:04.630Z,51.70
2018-11-26T21:15:32.460Z,46.20
2018-11-26T21:18:03.387Z,48.63
2018-11-26T21:20:35.678Z,51.10
2018-11-26T21:23:07.440Z,55.40
2018-11-26T21:25:36.911Z,53.80
2018-11-26T21:28:05.338Z,48.70
2018-11-26T21:30:33.524Z,46.13
2018-11-26T21:33:01.538Z,47.23
2018-11-26T21:35:29.201Z,47.43
2018-11-26T21:37:56.938Z,50.40
2018-11-26T21:40:25.172Z,56.53
2018-11-26T21:42:53.255Z,48.30
2018-11-26T21:45:32.016Z,51.93
2018-11-26T21:47:59.568Z,52.50
2018-11-26T21:50:27.318Z,50.30
2018-11-26T21:52:55.073Z,57.65
2018-11-26T21:55:22.942Z,58.10
2018-11-26T21:57:51.921Z,52.93
2018-11-26T22:00:25.501Z,54.23
2018-11-26T22:02:54.066Z,59.77
2018-11-26T22:05:21.882Z,55.80
2018-11-26T22:07:49.615Z,60.47
2018-11-26T22:10:19.999Z,61.77
2018-11-26T22:12:49.496Z,68.80
2018-11-26T22:15:17.193Z,57.73
2018-11-26T22:17:44.931Z,61.37
2018-11-26T22:20:29.149Z,63.02
2018-11-26T22:22:56.911Z,64.03
2018-11-26T22:25:24.615Z,69.17
2018-11-26T22:27:53.217Z,61.30
2018-11-26T22:30:26.649Z,63.43
2018-11-26T22:32:54.416Z,59.37
2018-11-26T22:35:22.318Z,63.37
2018-11-26T22:37:50.102Z,60.30
2018-11-26T22:40:19.540Z,68.78
2018-11-26T22:42:47.799Z,65.87
2018-11-26T22:45:24.323Z,65.30
2018-11-26T22:48:11.122Z,54.43
2018-11-26T22:50:41.506Z,57.73
2018-11-26T22:53:09.526Z,61.97
2018-11-26T22:55:37.407Z,61.37
2018-11-26T22:58:08.549Z,58.53
2018-11-26T23:00:41.498Z,60.33
2018-11-26T23:03:11.168Z,64.47
2018-11-26T23:05:38.849Z,57.17
2018-11-26T23:08:06.593Z,55.98
2018-11-26T23:10:34.589Z,63.68
2018-11-26T23:13:02.400Z,59.50
2018-11-26T23:15:30.113Z,53.70
2018-11-26T23:17:57.892Z,50.13
2018-11-26T23:20:25.730Z,49.33
2018-11-26T23:22:53.491Z,52.70
2018-11-26T23:25:21.282Z,50.97
2018-11-26T23:27:49.205Z,60.73
2018-11-26T23:30:19.616Z,50.13
2018-11-26T23:32:50.173Z,47.30
2018-11-26T23:35:17.914Z,51.40
2018-11-26T23:37:45.755Z,48.98
2018-11-26T23:40:13.743Z,49.45
2018-11-26T23:42:41.471Z,49.03
2018-11-26T23:45:12.910Z,48.02
2018-11-26T23:47:40.715Z,45.83
2018-11-26T23:50:11.231Z,44.83
2018-11-26T23:52:39.626Z,50.33
2018-11-26T23:55:10.125Z,45.23
2018-11-26T23:57:37.884Z,44.17
